Cow Head, Canada
Current Conditions -  °F | °C
As of 1:00 AM on Sunday 26 Oct 2014 (Local Time) from CWDH Reporting Station
Scattered Clouds Scattered Clouds  
Wind Chill: 32°   Ceiling: Unl
Heat Index: 40°   Visibility: 9mi
Dew Point: 31°   Wind: 15mph
Humidity: 71%   Direction: 60°ENE
Pressure: 29.61"   Gusts: 22mph
Location:  49.92°N, 57.9°W
Report Text: CWDH 260300Z AUTO 06013G19KT 9SM SCT023 04/M01 A2961 RMK SLP027 PK WND 05020/// T00431006 70033 WSI/SWOB
Loading
Personal Weather Stations






























Interactive Weather Map
Tropical Storm Tracking
New forecast layout! Learn more

10-Day Weather Forecast

Advertisements
Track Severe Weather on mobile